Time;durP1;ratioP1;P1;durP2;ratioP2;P2;SDS_P1;SDS_P2;PMS_P1;PMS_P2;Temp;Humidity;BMP_temperature;BMP_pressure;BME280_temperature;BME280_humidity;BME280_pressure;Samples;Min_cycle;Max_cycle;Signal;HPM_P1;HPM_P2
2023/05/21 00:02:18;;;;;;;13.40;9.27;;;;;;;16.51;85.34;99160.78;5052397;28;20028;-89
2023/05/21 00:04:44;;;;;;;13.68;9.65;;;;;;;16.60;85.40;99171.78;5032488;28;20021;-90
2023/05/21 00:07:11;;;;;;;12.02;8.60;;;;;;;16.73;84.80;99166.72;5014772;28;20060;-89
2023/05/21 00:09:37;;;;;;;12.48;9.13;;;;;;;16.71;84.15;99157.78;5014252;28;20407;-90
2023/05/21 00:12:07;;;;;;;13.38;10.18;;;;;;;16.66;84.34;99150.50;5031104;28;20035;-89
2023/05/21 00:14:33;;;;;;;;;;;;;;;16.78;84.58;99160.72;5034716;28;20036;-90
2023/05/21 00:16:58;;;;;;;15.68;10.13;;;;;;;16.72;84.89;99148.16;5048761;28;20294;-90
2023/05/21 00:19:24;;;;;;;20.23;10.55;;;;;;;16.59;85.39;99144.75;5043716;28;20425;-89
2023/05/21 00:21:49;;;;;;;17.75;9.88;;;;;;;16.57;85.21;99141.50;5034405;28;20028;-89
2023/05/21 00:24:15;;;;;;;13.57;9.23;;;;;;;16.68;85.54;99142.47;5034436;28;20021;-89
2023/05/21 00:26:41;;;;;;;13.70;10.02;;;;;;;16.76;84.88;99134.88;5034303;28;20027;-89
2023/05/21 00:29:06;;;;;;;20.90;9.60;;;;;;;16.81;84.01;99137.34;5028577;28;20120;-90
2023/05/21 00:31:32;;;;;;;11.77;8.57;;;;;;;16.70;83.28;99123.13;5028231;28;20406;-89
2023/05/21 00:33:58;;;;;;;12.20;9.30;;;;;;;16.58;83.92;99125.38;5014554;28;20029;-89
2023/05/21 00:36:24;;;;;;;9.45;8.27;;;;;;;16.61;83.70;99131.06;5050475;28;20480;-89
2023/05/21 00:38:50;;;;;;;11.70;8.25;;;;;;;16.84;82.75;99144.25;5054039;28;20021;-89
2023/05/21 00:41:16;;;;;;;16.67;9.00;;;;;;;16.54;82.79;99109.22;5053937;28;20492;-89
2023/05/21 00:43:43;;;;;;;11.80;7.95;;;;;;;16.70;82.24;99131.59;5042552;28;20025;-88
2023/05/21 00:46:19;;;;;;;11.20;9.02;;;;;;;16.63;82.43;99123.03;5021459;28;20029;-89
2023/05/21 00:48:46;;;;;;;12.85;9.55;;;;;;;16.80;82.16;99140.56;5014492;28;20108;-89
2023/05/21 00:51:15;;;;;;;15.02;10.32;;;;;;;16.74;81.52;99127.97;5031985;28;20022;-89
2023/05/21 00:53:42;;;;;;;13.17;10.03;;;;;;;16.67;81.48;99125.88;5031808;28;20029;-90
2023/05/21 00:56:07;;;;;;;11.13;8.85;;;;;;;16.80;80.57;99132.91;5013692;28;20452;-89
2023/05/21 00:58:34;;;;;;;12.07;7.65;;;;;;;16.58;80.26;99123.38;5021069;28;20021;-89
2023/05/21 01:01:05;;;;;;;21.02;10.13;;;;;;;16.58;79.82;99129.03;5033698;28;20021;-90
2023/05/21 01:03:37;;;;;;;13.07;7.78;;;;;;;16.50;80.04;99119.66;5036822;28;20029;-89
2023/05/21 01:06:06;;;;;;;11.77;7.65;;;;;;;16.53;79.22;99118.88;5037541;28;20493;-89
2023/05/21 01:08:36;;;;;;;11.90;8.73;;;;;;;16.53;78.65;99120.88;5040291;28;20024;-89
2023/05/21 01:11:06;;;;;;;11.05;8.50;;;;;;;16.51;78.18;99129.75;5057222;28;20090;-90
2023/05/21 01:13:35;;;;;;;9.00;7.70;;;;;;;16.39;78.41;99096.91;5049695;28;20111;-88
2023/05/21 01:16:02;;;;;;;13.35;8.10;;;;;;;16.31;78.63;99114.97;5032254;28;20116;-89
2023/05/21 01:18:28;;;;;;;11.38;7.40;;;;;;;16.10;79.48;99090.91;5049299;28;20021;-89
2023/05/21 01:20:54;;;;;;;10.90;7.22;;;;;;;15.78;81.16;99096.06;5023649;28;20116;-89
2023/05/21 01:23:19;;;;;;;15.85;8.48;;;;;;;15.80;82.55;99119.84;5019661;28;20106;-89
2023/05/21 01:25:46;;;;;;;14.68;8.68;;;;;;;15.65;83.74;99109.53;5017018;28;20060;-89
2023/05/21 01:28:12;;;;;;;12.27;7.50;;;;;;;15.70;83.50;99114.88;5016867;28;20024;-89
2023/05/21 01:30:42;;;;;;;13.25;8.75;;;;;;;15.59;84.65;99114.69;5046573;28;20028;-88
2023/05/21 01:33:24;;;;;;;14.48;9.68;;;;;;;15.20;86.76;99087.47;5036514;28;20032;-89
2023/05/21 01:35:59;;;;;;;19.77;8.13;;;;;;;15.56;85.80;99113.44;5036971;28;20099;-89
2023/05/21 01:38:36;;;;;;;20.42;8.40;;;;;;;15.16;86.21;99066.88;5036828;28;20033;-89
2023/05/21 01:41:05;;;;;;;17.50;9.35;;;;;;;15.33;86.27;99073.22;5037420;28;20031;-90
2023/05/21 01:43:33;;;;;;;15.73;9.48;;;;;;;15.64;86.65;99099.47;5037066;28;20057;-89
2023/05/21 01:46:01;;;;;;;12.45;7.88;;;;;;;15.78;86.14;99102.50;5034228;28;20030;-89
2023/05/21 01:48:28;;;;;;;12.68;8.63;;;;;;;15.65;86.41;99104.72;5036693;28;20023;-89
2023/05/21 01:50:56;;;;;;;10.10;8.27;;;;;;;15.92;85.62;99106.75;5036736;28;20086;-89
2023/05/21 01:53:22;;;;;;;20.42;10.80;;;;;;;15.82;84.36;99080.00;5036459;28;20079;-88
2023/05/21 01:55:47;;;;;;;18.90;8.75;;;;;;;16.07;83.62;99102.97;5036455;28;20029;-89
2023/05/21 01:58:14;;;;;;;11.32;8.13;;;;;;;16.09;82.85;99102.56;5036236;28;20056;-89
2023/05/21 02:00:40;;;;;;;13.13;7.47;;;;;;;16.16;82.34;99097.03;5036550;28;20081;-89
2023/05/21 02:03:07;;;;;;;15.40;8.00;;;;;;;16.30;81.36;99092.78;5036531;28;20052;-89
2023/05/21 02:05:33;;;;;;;15.82;8.75;;;;;;;16.27;80.90;99078.25;5036948;28;20025;-89
2023/05/21 02:08:00;;;;;;;12.95;8.25;;;;;;;16.51;80.06;99106.34;5016512;28;20029;-89
2023/05/21 02:10:26;;;;;;;11.75;8.98;;;;;;;16.40;79.41;99104.19;5016548;28;20022;-89
2023/05/21 02:12:51;;;;;;;11.18;7.57;;;;;;;16.28;80.40;99093.16;5016029;28;20116;-89
2023/05/21 02:15:17;;;;;;;13.00;8.27;;;;;;;16.25;81.10;99103.22;5018966;28;20032;-90
2023/05/21 02:17:46;;;;;;;12.70;8.18;;;;;;;15.86;81.47;99070.41;5041728;28;20406;-89
2023/05/21 02:20:12;;;;;;;13.68;8.18;;;;;;;15.83;82.51;99082.44;5036011;28;20077;-89
2023/05/21 02:22:43;;;;;;;12.07;8.88;;;;;;;16.04;82.29;99089.59;5035613;28;20163;-88
2023/05/21 02:25:09;;;;;;;14.68;8.55;;;;;;;16.21;81.61;99090.25;5045604;28;20039;-89
2023/05/21 02:27:36;;;;;;;14.00;8.10;;;;;;;16.12;82.13;99082.88;5055724;28;20020;-89
2023/05/21 02:30:06;;;;;;;12.73;7.78;;;;;;;16.34;81.09;99094.44;5047496;28;20025;-89
2023/05/21 02:32:33;;;;;;;14.63;8.88;;;;;;;16.38;80.88;99084.00;5045527;28;20029;-89
2023/05/21 02:34:59;;;;;;;10.82;8.60;;;;;;;16.44;80.02;99089.31;5018025;28;20502;-89
2023/05/21 02:37:26;;;;;;;12.68;8.45;;;;;;;16.56;79.82;99091.91;5015262;28;20116;-89
2023/05/21 02:39:55;;;;;;;17.80;8.43;;;;;;;16.41;80.45;99091.72;5032406;28;20032;-89
2023/05/21 02:42:25;;;;;;;9.82;7.30;;;;;;;16.40;80.95;99087.25;5033323;28;20055;-89
2023/05/21 02:44:51;;;;;;;15.48;8.57;;;;;;;16.22;81.66;99089.03;5035633;28;20033;-88
2023/05/21 02:47:18;;;;;;;17.60;8.45;;;;;;;16.19;81.24;99070.06;5035395;28;20028;-88
2023/05/21 02:49:44;;;;;;;22.05;8.07;;;;;;;16.08;81.55;99078.38;5035220;28;20025;-89
2023/05/21 02:52:10;;;;;;;12.85;8.70;;;;;;;15.85;83.26;99085.69;5035367;28;20489;-89
2023/05/21 02:54:35;;;;;;;11.80;7.93;;;;;;;15.75;82.95;99080.72;5035218;28;20020;-89
2023/05/21 02:57:01;;;;;;;12.45;8.25;;;;;;;15.67;84.01;99093.06;5031857;28;20049;-89
2023/05/21 02:59:26;;;;;;;15.00;8.43;;;;;;;15.41;85.91;99077.75;5031874;28;20088;-89
2023/05/21 03:01:51;;;;;;;10.68;7.78;;;;;;;15.11;86.93;99050.31;5031862;28;20044;-89
2023/05/21 03:04:17;;;;;;;19.67;9.85;;;;;;;15.06;87.22;99050.59;5031528;28;20048;-89
2023/05/21 03:06:43;;;;;;;14.10;9.40;;;;;;;15.19;87.73;99087.88;5028251;28;20034;-88
2023/05/21 03:09:09;;;;;;;23.98;12.68;;;;;;;15.27;87.67;99084.00;5032070;28;20032;-88
2023/05/21 03:11:35;;;;;;;15.70;10.25;;;;;;;15.37;86.95;99083.31;5021421;28;20034;-89
2023/05/21 03:14:01;;;;;;;15.95;10.25;;;;;;;15.42;86.73;99079.38;5012019;28;20045;-89
2023/05/21 03:16:27;;;;;;;11.15;8.00;;;;;;;15.25;87.04;99084.34;5012079;28;20025;-89
2023/05/21 03:18:53;;;;;;;17.27;9.38;;;;;;;15.51;86.62;99091.22;5012909;28;20558;-88
2023/05/21 03:21:21;;;;;;;19.33;10.48;;;;;;;15.57;85.31;99075.63;5012284;28;20073;-89
2023/05/21 03:23:47;;;;;;;18.40;9.02;;;;;;;15.68;84.57;99089.03;5011814;28;20558;-89
2023/05/21 03:26:13;;;;;;;15.95;9.30;;;;;;;15.73;84.21;99108.47;5028227;28;20116;-89
2023/05/21 03:28:38;;;;;;;16.77;8.93;;;;;;;15.72;83.99;99120.94;5031061;28;20112;-89
2023/05/21 03:31:04;;;;;;;12.52;8.40;;;;;;;15.87;83.05;99102.25;5031658;28;20098;-89
2023/05/21 03:33:35;;;;;;;20.00;9.10;;;;;;;15.78;83.07;99065.84;5032465;28;20022;-89
2023/05/21 03:36:00;;;;;;;13.15;9.00;;;;;;;15.86;82.72;99073.22;5012155;28;20033;-89
2023/05/21 03:38:26;;;;;;;12.20;7.53;;;;;;;15.90;82.11;99076.13;5011712;28;20029;-90
2023/05/21 03:40:51;;;;;;;51.33;29.65;;;;;;;15.20;83.53;99061.31;5025665;28;20029;-89
2023/05/21 03:43:17;;;;;;;14.98;11.63;;;;;;;15.18;84.70;99080.59;5048590;28;20036;-89
2023/05/21 03:45:42;;;;;;;16.20;9.07;;;;;;;15.11;85.63;99081.28;5033203;28;20021;-89
2023/05/21 03:48:07;;;;;;;12.90;8.38;;;;;;;15.28;86.17;99094.88;5031376;28;20033;-89
2023/05/21 03:50:33;;;;;;;12.07;8.50;;;;;;;15.27;86.21;99079.16;5018581;28;20091;-89
2023/05/21 03:52:58;;;;;;;14.77;8.40;;;;;;;15.30;84.31;99103.75;5011772;28;20517;-89
2023/05/21 03:55:24;;;;;;;12.30;7.80;;;;;;;15.41;84.12;99077.75;5011539;28;20036;-89
2023/05/21 03:57:49;;;;;;;15.00;8.48;;;;;;;15.50;85.14;99071.84;5011391;28;20046;-89
2023/05/21 04:00:15;;;;;;;14.05;8.82;;;;;;;15.70;84.56;99084.66;5045890;28;20021;-90
2023/05/21 04:02:40;;;;;;;13.98;9.75;;;;;;;15.60;84.56;99095.78;5050735;28;20527;-89
2023/05/21 04:05:06;;;;;;;16.08;7.88;;;;;;;15.49;85.14;99095.59;5039355;28;20456;-89
2023/05/21 04:07:31;;;;;;;14.00;8.32;;;;;;;15.47;85.38;99062.16;5031205;28;20032;-89
2023/05/21 04:09:57;;;;;;;13.02;8.07;;;;;;;15.67;85.30;99088.25;5031048;28;20482;-89
2023/05/21 04:12:22;;;;;;;16.00;8.65;;;;;;;15.99;84.16;99106.88;5031242;28;20060;-89
2023/05/21 04:14:48;;;;;;;18.08;9.63;;;;;;;16.02;83.32;99080.72;5030968;28;20034;-89
2023/05/21 04:17:17;;;;;;;13.18;9.48;;;;;;;15.96;82.93;99085.88;5047066;28;20107;-88
2023/05/21 04:19:46;;;;;;;18.50;10.85;;;;;;;15.67;84.15;99056.41;5032327;28;20407;-90
2023/05/21 04:22:14;;;;;;;14.02;9.75;;;;;;;15.68;84.60;99077.78;5011711;28;20088;-87
2023/05/21 04:24:40;;;;;;;18.30;10.38;;;;;;;16.07;84.10;99097.31;5011125;28;20025;-89
2023/05/21 04:27:08;;;;;;;18.42;10.15;;;;;;;15.85;83.58;99063.13;5011181;28;20054;-89
2023/05/21 04:29:36;;;;;;;14.52;9.95;;;;;;;16.12;83.59;99101.81;5011229;28;20077;-89
2023/05/21 04:32:03;;;;;;;16.90;10.27;;;;;;;15.76;83.67;99071.06;5027704;28;20049;-89
2023/05/21 04:34:28;;;;;;;14.38;10.00;;;;;;;15.72;84.60;99068.19;5036622;28;20025;-90
2023/05/21 04:36:55;;;;;;;13.70;8.32;;;;;;;15.68;84.37;99078.59;5031789;28;20045;-89
2023/05/21 04:39:21;;;;;;;13.20;8.90;;;;;;;15.69;85.16;99076.59;5034486;28;20021;-89
2023/05/21 04:41:49;;;;;;;14.82;9.63;;;;;;;15.93;85.73;99086.63;5034550;28;20029;-88
2023/05/21 04:44:16;;;;;;;12.32;9.27;;;;;;;16.00;85.02;99086.75;5034479;28;20122;-88
2023/05/21 04:46:44;;;;;;;17.15;9.38;;;;;;;15.73;85.75;99097.19;5034178;28;20022;-90
2023/05/21 04:49:10;;;;;;;18.17;8.93;;;;;;;15.83;86.66;99095.72;5033446;28;20672;-86
2023/05/21 04:51:39;;;;;;;20.45;11.13;;;;;;;16.06;85.65;99097.69;5034893;28;20025;-86
2023/05/21 04:54:05;;;;;;;14.45;9.18;;;;;;;16.21;84.30;99104.34;5046450;28;20025;-87
2023/05/21 04:56:30;;;;;;;15.63;8.90;;;;;;;16.13;84.24;99109.88;5048879;28;20045;-87
2023/05/21 04:58:57;;;;;;;20.02;10.23;;;;;;;15.90;85.60;99121.25;5027868;28;20021;-87
2023/05/21 05:01:25;;;;;;;13.05;9.82;;;;;;;15.91;86.83;99105.13;5034535;28;20485;-87
2023/05/21 05:03:51;;;;;;;16.80;9.10;;;;;;;15.86;88.72;99097.78;5029502;28;20091;-86
2023/05/21 05:06:17;;;;;;;20.58;8.85;;;;;;;15.46;91.59;99071.81;5025027;28;20033;-87
2023/05/21 05:08:43;;;;;;;11.75;9.93;;;;;;;15.64;92.42;99100.28;5028561;28;20032;-87
2023/05/21 05:11:09;;;;;;;12.77;10.32;;;;;;;15.54;93.13;99070.72;5053474;28;20086;-88
2023/05/21 05:13:34;;;;;;;21.30;10.82;;;;;;;15.68;92.09;99083.41;5053341;28;20024;-87
2023/05/21 05:16:00;;;;;;;14.18;9.73;;;;;;;16.07;91.26;99105.78;5028044;28;20088;-87
2023/05/21 05:18:26;;;;;;;14.18;9.68;;;;;;;15.98;90.00;99069.38;5013118;28;20026;-86
2023/05/21 05:20:51;;;;;;;13.60;9.27;;;;;;;16.36;88.80;99106.16;5016822;28;20616;-87
2023/05/21 05:23:17;;;;;;;12.02;8.95;;;;;;;16.19;88.39;99098.28;5013652;28;20565;-87
2023/05/21 05:25:42;;;;;;;17.15;9.52;;;;;;;16.23;88.14;99099.13;5027171;28;20061;-87
2023/05/21 05:28:08;;;;;;;18.60;10.13;;;;;;;16.31;87.25;99108.50;5020170;28;20028;-87
2023/05/21 05:30:34;;;;;;;15.45;10.15;;;;;;;16.35;87.36;99106.53;5027062;28;20013;-87
2023/05/21 05:32:59;;;;;;;15.90;9.45;;;;;;;16.30;86.21;99087.94;5030956;28;20032;-87
2023/05/21 05:35:25;;;;;;;15.00;8.98;;;;;;;16.48;86.23;99087.34;5031240;28;20029;-87
2023/05/21 05:37:50;;;;;;;10.70;8.73;;;;;;;16.31;85.18;99081.13;5013180;28;20487;-87
2023/05/21 05:40:16;;;;;;;12.88;9.05;;;;;;;16.61;84.73;99097.19;5013758;28;20412;-87
2023/05/21 05:42:41;;;;;;;13.45;9.40;;;;;;;16.49;84.84;99074.88;5037892;28;20088;-86
2023/05/21 05:45:07;;;;;;;28.13;9.88;;;;;;;16.54;84.41;99111.22;5018866;28;20021;-86
2023/05/21 05:47:33;;;;;;;16.60;9.15;;;;;;;16.70;84.70;99099.69;5027622;28;20017;-87
2023/05/21 05:49:58;;;;;;;12.88;8.90;;;;;;;16.80;84.72;99109.50;5031557;28;20425;-86
2023/05/21 05:52:24;;;;;;;11.95;9.25;;;;;;;16.94;84.48;99106.84;5039527;28;20036;-87
2023/05/21 05:54:49;;;;;;;16.42;12.27;;;;;;;16.46;85.95;99096.19;5028783;28;20061;-87
2023/05/21 05:57:15;;;;;;;14.60;9.90;;;;;;;16.50;85.75;99130.13;5033244;28;20049;-87
2023/05/21 05:59:40;;;;;;;14.10;10.10;;;;;;;16.37;86.02;99140.84;5016023;28;20061;-87
2023/05/21 06:02:06;;;;;;;10.80;9.30;;;;;;;16.27;86.57;99145.97;5012620;28;20026;-87
2023/05/21 06:04:31;;;;;;;17.70;9.88;;;;;;;16.56;86.10;99151.19;5023666;28;20489;-87
2023/05/21 06:06:58;;;;;;;15.35;9.15;;;;;;;16.35;86.53;99163.81;5024678;28;20079;-87
2023/05/21 06:09:24;;;;;;;10.60;9.20;;;;;;;16.62;86.13;99160.91;5027115;28;20044;-86
2023/05/21 06:11:49;;;;;;;20.45;10.20;;;;;;;16.87;85.33;99166.06;5022101;28;20033;-86
2023/05/21 06:14:15;;;;;;;18.55;8.75;;;;;;;16.77;84.38;99163.91;5010632;28;20029;-86
2023/05/21 06:16:40;;;;;;;10.52;8.75;;;;;;;16.53;83.54;99140.63;5010853;28;20025;-87
2023/05/21 06:19:06;;;;;;;20.17;9.02;;;;;;;16.83;83.76;99148.28;5010948;28;20018;-88
2023/05/21 06:21:31;;;;;;;16.15;8.73;;;;;;;17.11;83.58;99163.94;5009931;28;20589;-87
2023/05/21 06:23:57;;;;;;;9.85;8.23;;;;;;;17.01;84.77;99134.38;5010614;28;20435;-87
2023/05/21 06:26:23;;;;;;;26.35;10.77;;;;;;;17.14;84.37;99148.22;5029824;28;20035;-87
2023/05/21 06:28:48;;;;;;;20.75;11.73;;;;;;;16.96;84.17;99121.38;5031018;28;20023;-87
2023/05/21 06:31:14;;;;;;;19.15;10.15;;;;;;;17.11;85.03;99139.34;5023264;28;20026;-87
2023/05/21 06:33:40;;;;;;;17.73;9.30;;;;;;;16.93;85.75;99119.34;5023549;28;20111;-86
2023/05/21 06:36:06;;;;;;;15.07;9.00;;;;;;;17.01;85.62;99108.13;5018175;28;20035;-87
2023/05/21 06:38:32;;;;;;;16.70;9.00;;;;;;;17.29;84.72;99132.25;5015048;28;20092;-87
2023/05/21 06:40:57;;;;;;;16.58;9.40;;;;;;;17.29;84.10;99118.09;5020299;28;20521;-87
2023/05/21 06:43:23;;;;;;;16.27;8.55;;;;;;;17.51;83.30;99141.72;5014530;28;20034;-87
2023/05/21 06:45:58;;;;;;;19.60;9.35;;;;;;;17.46;82.67;99108.97;5011018;28;20520;-87
2023/05/21 06:48:23;;;;;;;15.13;9.15;;;;;;;17.57;83.73;99116.72;5011086;28;20037;-87
2023/05/21 06:50:49;;;;;;;12.75;8.85;;;;;;;17.41;84.11;99123.47;5031034;28;20041;-87
2023/05/21 06:53:15;;;;;;;14.63;8.70;;;;;;;17.32;84.61;99112.50;5028974;28;20029;-87
2023/05/21 06:55:43;;;;;;;15.10;9.57;;;;;;;17.51;83.04;99116.28;5030526;28;20029;-87
2023/05/21 06:58:10;;;;;;;17.23;10.02;;;;;;;17.61;81.57;99118.38;5029892;28;20044;-87
2023/05/21 07:00:35;;;;;;;17.10;9.20;;;;;;;17.68;80.51;99112.78;5026517;28;20037;-88
2023/05/21 07:03:01;;;;;;;10.23;8.35;;;;;;;17.80;78.86;99130.66;5014730;28;20030;-87
2023/05/21 07:05:26;;;;;;;14.25;10.15;;;;;;;17.83;79.65;99133.50;5011585;28;20026;-87
2023/05/21 07:07:52;;;;;;;11.05;8.35;;;;;;;17.90;78.49;99123.44;5010998;28;20036;-87
2023/05/21 07:10:17;;;;;;;12.57;7.72;;;;;;;17.76;77.83;99090.19;5020310;28;20033;-86
2023/05/21 07:12:42;;;;;;;14.98;7.72;;;;;;;18.21;79.06;99135.38;5031449;28;20037;-87
2023/05/21 07:15:08;;;;;;;11.32;7.57;;;;;;;18.14;80.07;99133.31;5012370;28;20033;-87
2023/05/21 07:17:34;;;;;;;21.98;8.15;;;;;;;18.29;80.27;99134.22;5018916;28;20627;-88
2023/05/21 07:19:59;;;;;;;10.95;7.07;;;;;;;18.44;78.05;99123.78;5041555;28;20539;-87
2023/05/21 07:22:25;;;;;;;12.18;7.78;;;;;;;18.39;76.77;99124.16;5020753;28;20057;-88
2023/05/21 07:24:50;;;;;;;11.65;6.10;;;;;;;18.63;75.67;99136.81;5015965;28;20116;-87
2023/05/21 07:27:16;;;;;;;9.45;6.57;;;;;;;18.78;74.77;99145.34;5017315;28;20029;-89
2023/05/21 07:29:41;;;;;;;18.35;8.13;;;;;;;18.99;73.94;99127.59;5027144;28;20025;-91
2023/05/21 07:32:07;;;;;;;16.58;10.90;;;;;;;18.91;76.26;99111.81;5023697;28;20759;-88
2023/05/21 07:34:32;;;;;;;18.15;11.82;;;;;;;18.92;77.35;99125.56;5029063;28;20441;-88
2023/05/21 07:36:58;;;;;;;17.63;10.93;;;;;;;18.85;76.17;99142.56;5027121;28;20033;-89
2023/05/21 07:39:23;;;;;;;13.25;9.35;;;;;;;18.74;76.30;99142.50;5023042;28;20211;-90
2023/05/21 07:41:49;;;;;;;14.27;9.30;;;;;;;18.88;76.07;99138.94;5031796;28;20033;-90
2023/05/21 07:44:14;;;;;;;12.27;9.02;;;;;;;18.79;75.34;99104.50;5024605;28;20391;-89
2023/05/21 07:46:40;;;;;;;13.57;9.27;;;;;;;18.93;74.90;99115.06;5011021;28;20029;-90
2023/05/21 07:49:05;;;;;;;17.20;7.57;;;;;;;19.18;72.87;99131.34;5010877;28;20029;-89
2023/05/21 07:51:31;;;;;;;9.38;7.28;;;;;;;19.10;73.41;99113.50;5010642;28;20029;-89
2023/05/21 07:53:56;;;;;;;15.10;7.38;;;;;;;19.20;73.22;99118.38;5019945;28;20029;-89
2023/05/21 07:56:22;;;;;;;12.65;6.85;;;;;;;19.49;70.58;99129.75;5030662;28;20107;-89
2023/05/21 07:58:47;;;;;;;13.45;6.50;;;;;;;19.50;65.63;99130.56;5030654;28;20108;-89
2023/05/21 08:01:13;;;;;;;11.63;5.40;;;;;;;19.58;62.55;99137.06;5025230;28;20036;-89
2023/05/21 08:03:38;;;;;;;13.68;6.60;;;;;;;19.52;61.51;99116.78;5031178;28;20482;-90
2023/05/21 08:06:04;;;;;;;19.75;5.40;;;;;;;19.43;62.41;99090.84;5030959;28;20044;-85
2023/05/21 08:08:30;;;;;;;12.30;6.45;;;;;;;19.73;62.70;99106.63;5029947;28;20037;-86
2023/05/21 08:10:55;;;;;;;11.73;5.82;;;;;;;20.06;62.83;99122.44;5028115;28;20120;-86
2023/05/21 08:13:21;;;;;;;12.10;6.05;;;;;;;20.20;61.54;99138.63;5034104;28;20028;-86
2023/05/21 08:15:47;;;;;;;12.57;6.82;;;;;;;20.09;60.12;99120.00;5034113;28;20064;-86
2023/05/21 08:18:13;;;;;;;6.93;5.07;;;;;;;20.21;59.84;99128.09;5033760;28;20477;-87
2023/05/21 08:20:38;;;;;;;9.73;6.35;;;;;;;20.32;56.18;99145.91;5032971;28;20060;-87
2023/05/21 08:23:04;;;;;;;10.07;5.53;;;;;;;20.44;56.62;99143.84;5033988;28;20029;-86
2023/05/21 08:25:29;;;;;;;10.77;6.25;;;;;;;20.54;55.44;99133.66;5034174;28;20032;-85
2023/05/21 08:27:55;;;;;;;10.52;5.20;;;;;;;20.56;53.75;99131.22;5033688;28;20033;-86
2023/05/21 08:30:20;;;;;;;15.70;5.60;;;;;;;20.66;54.42;99135.25;5034014;28;20521;-87
2023/05/21 08:32:47;;;;;;;16.00;4.70;;;;;;;20.76;50.67;99134.41;5033857;28;20745;-86
2023/05/21 08:35:12;;;;;;;9.38;4.70;;;;;;;20.90;52.52;99136.38;5031859;28;20091;-87
2023/05/21 08:37:38;;;;;;;8.27;5.40;;;;;;;21.06;51.18;99135.06;5033624;28;20421;-88
2023/05/21 08:40:05;;;;;;;11.38;4.88;;;;;;;21.11;48.26;99131.81;5032842;28;20117;-88
2023/05/21 08:42:48;;;;;;;10.13;4.70;;;;;;;21.10;49.17;99136.66;5034973;28;20028;-89
2023/05/21 08:45:15;;;;;;;13.48;4.40;;;;;;;21.30;49.52;99144.69;5033396;28;20044;-88
2023/05/21 08:47:42;;;;;;;7.70;4.80;;;;;;;21.38;47.12;99151.13;5033389;28;20021;-88
2023/05/21 08:50:10;;;;;;;11.45;4.70;;;;;;;21.46;47.34;99142.09;5035191;28;20096;-88
2023/05/21 08:52:35;;;;;;;8.52;4.53;;;;;;;21.76;46.70;99141.94;5030544;28;20025;-87
2023/05/21 08:55:03;;;;;;;10.73;4.10;;;;;;;22.05;43.94;99121.72;5032241;28;20486;-86
2023/05/21 08:57:30;;;;;;;16.77;7.32;;;;;;;22.34;42.50;99136.47;5049329;28;20052;-88
2023/05/21 08:59:56;;;;;;;25.23;6.97;;;;;;;22.66;42.64;99141.03;5036698;28;20032;-87
2023/05/21 09:02:23;;;;;;;5.28;4.18;;;;;;;22.74;42.35;99152.31;5036776;28;20025;-88
2023/05/21 09:04:55;;;;;;;19.05;4.13;;;;;;;22.52;41.39;99142.00;5036852;28;20238;-88
2023/05/21 09:07:28;;;;;;;10.50;5.68;;;;;;;22.36;42.06;99144.59;5022076;28;20569;-88
2023/05/21 09:10:01;;;;;;;7.20;4.70;;;;;;;22.25;41.40;99136.97;5047218;28;20110;-89
2023/05/21 09:12:27;;;;;;;6.55;4.07;;;;;;;22.32;43.01;99152.34;5023600;28;20053;-89
2023/05/21 09:14:53;;;;;;;7.50;4.60;;;;;;;22.26;41.59;99146.31;5016884;28;20029;-89
2023/05/21 09:17:19;;;;;;;16.30;4.85;;;;;;;22.13;42.04;99151.75;5016936;28;20057;-89
2023/05/21 09:20:10;;;;;;;6.53;4.18;;;;;;;22.04;42.13;99149.41;5016948;28;20029;-90
2023/05/21 09:22:47;;;;;;;10.27;4.47;;;;;;;21.86;43.74;99133.28;5015726;28;20037;-89
2023/05/21 09:25:15;;;;;;;6.18;3.97;;;;;;;21.74;44.23;99123.25;5016749;28;20536;-89
2023/05/21 09:27:41;;;;;;;7.50;4.28;;;;;;;21.70;43.72;99122.44;5043696;28;20702;-90
2023/05/21 09:30:12;;;;;;;8.35;4.10;;;;;;;21.58;43.68;99137.16;5016760;28;20044;-89
2023/05/21 09:32:39;;;;;;;8.10;4.28;;;;;;;21.37;44.93;99127.56;5036646;28;20033;-90
2023/05/21 09:35:14;;;;;;;6.47;3.88;;;;;;;21.42;44.98;99146.22;5043263;28;20021;-87
2023/05/21 09:37:44;;;;;;;5.10;3.90;;;;;;;21.39;44.99;99132.81;5039660;28;20123;-90
2023/05/21 09:40:12;;;;;;;5.65;3.97;;;;;;;21.41;44.63;99148.25;5052443;28;20024;-91
2023/05/21 09:42:44;;;;;;;9.45;4.78;;;;;;;21.24;43.98;99132.13;5031016;28;20029;-91
2023/05/21 09:45:10;;;;;;;6.88;4.18;;;;;;;21.35;43.16;99140.59;5034582;28;20203;-89
2023/05/21 09:47:47;;;;;;;8.93;4.20;;;;;;;21.21;42.72;99148.00;5027736;28;20026;-89
2023/05/21 09:50:17;;;;;;;12.68;4.20;;;;;;;21.16;43.57;99154.91;5021742;28;20111;-89
2023/05/21 09:52:43;;;;;;;5.85;3.63;;;;;;;21.18;42.89;99135.41;5016798;28;20108;-89
2023/05/21 09:55:13;;;;;;;7.88;4.20;;;;;;;21.04;42.63;99115.59;5015274;28;20109;-90
2023/05/21 09:57:42;;;;;;;13.98;4.32;;;;;;;21.20;43.55;99135.00;5033343;28;20037;-89
2023/05/21 10:00:16;;;;;;;7.53;4.23;;;;;;;21.10;43.94;99136.66;5034825;28;20497;-90
2023/05/21 10:02:44;;;;;;;9.02;4.60;;;;;;;21.38;43.70;99136.91;5028423;28;20053;-90
2023/05/21 10:05:10;;;;;;;6.20;4.20;;;;;;;21.50;43.47;99141.31;5023892;28;20532;-89
2023/05/21 10:07:37;;;;;;;11.88;4.95;;;;;;;21.46;43.53;99133.56;5033861;28;20023;-91
2023/05/21 10:10:08;;;;;;;6.93;3.92;;;;;;;21.26;43.55;99133.31;5015706;28;20025;-89
2023/05/21 10:12:34;;;;;;;7.45;4.20;;;;;;;21.27;44.42;99123.56;5033977;28;20445;-90
2023/05/21 10:15:03;;;;;;;6.35;3.60;;;;;;;21.46;43.17;99141.31;5021740;28;20036;-89
2023/05/21 10:17:32;;;;;;;12.25;4.50;;;;;;;21.43;43.93;99134.41;5030374;28;20535;-89
2023/05/21 10:20:00;;;;;;;8.43;5.30;;;;;;;21.38;43.01;99129.19;5015669;28;20021;-90
2023/05/21 10:22:26;;;;;;;6.88;3.80;;;;;;;21.52;43.51;99127.47;5021405;28;20408;-89
2023/05/21 10:24:52;;;;;;;7.10;4.28;;;;;;;21.57;43.42;99127.81;5029080;28;20033;-89
2023/05/21 10:27:19;;;;;;;7.60;4.10;;;;;;;21.76;42.96;99136.25;5020473;28;20028;-90
2023/05/21 10:29:45;;;;;;;8.95;3.65;;;;;;;21.98;44.01;99140.50;5015229;28;20028;-89
2023/05/21 10:32:15;;;;;;;7.28;4.47;;;;;;;21.99;43.20;99135.59;5020330;28;20021;-89
2023/05/21 10:34:42;;;;;;;9.73;4.40;;;;;;;22.01;42.79;99131.13;5017625;28;20017;-89
2023/05/21 10:37:09;;;;;;;18.08;4.30;;;;;;;21.87;42.88;99131.25;5034505;28;20049;-89
2023/05/21 10:39:37;;;;;;;5.38;4.03;;;;;;;21.95;42.26;99114.91;5033632;28;20654;-89
2023/05/21 10:42:25;;;;;;;10.63;4.40;;;;;;;22.06;42.75;99149.78;5024365;28;20025;-89
2023/05/21 10:45:04;;;;;;;12.45;4.93;;;;;;;22.16;42.83;99153.75;5028083;28;20466;-90
2023/05/21 10:47:49;;;;;;;21.00;4.73;;;;;;;22.11;44.26;99142.81;5032175;28;20036;-88
2023/05/21 10:50:39;;;;;;;10.35;4.60;;;;;;;22.01;48.43;99139.66;5033836;28;20447;-89
2023/05/21 10:53:57;;;;;;;6.45;4.30;;;;;;;21.92;46.30;99136.47;5015378;28;20021;-88
2023/05/21 10:56:31;;;;;;;5.68;3.83;;;;;;;21.80;46.96;99131.31;5029672;28;20049;-90
2023/05/21 10:59:24;;;;;;;9.18;4.38;;;;;;;21.93;46.57;99129.56;5029129;28;20120;-87
2023/05/21 11:01:54;;;;;;;7.40;3.75;;;;;;;21.95;44.92;99144.19;5031405;28;20036;-90
2023/05/21 11:04:25;;;;;;;7.93;4.32;;;;;;;22.10;45.32;99139.16;5035855;28;20021;-90
2023/05/21 11:06:51;;;;;;;9.32;4.45;;;;;;;22.19;43.67;99141.50;5030583;28;20032;-88
2023/05/21 11:09:17;;;;;;;7.60;4.45;;;;;;;22.09;43.83;99142.44;5034023;28;20037;-89
2023/05/21 11:11:43;;;;;;;8.25;4.25;;;;;;;22.11;43.66;99148.53;5034298;28;20025;-90
2023/05/21 11:14:55;;;;;;;7.47;4.35;;;;;;;21.88;42.45;99122.28;5031736;28;20516;-89
2023/05/21 11:17:38;;;;;;;8.15;4.35;;;;;;;22.07;41.04;99139.19;5047151;28;20505;-90
2023/05/21 11:20:07;;;;;;;5.18;3.92;;;;;;;22.07;41.75;99139.19;5033121;28;20057;-90
2023/05/21 11:22:34;;;;;;;10.18;4.13;;;;;;;21.72;44.67;99131.41;5034080;28;20044;-90
2023/05/21 11:25:01;;;;;;;12.05;4.22;;;;;;;21.57;45.72;99142.03;5031805;28;20064;-89
2023/05/21 11:27:33;;;;;;;9.35;4.63;;;;;;;21.39;46.78;99147.06;5033428;28;20071;-90
2023/05/21 11:29:58;;;;;;;9.23;4.22;;;;;;;21.33;47.34;99138.16;5033194;28;20440;-90